Oliver Springs, Tennessee
Current Conditions -  °F | °C
As of 7:53 PM on Friday 19 Dec 2014 (Local Time) from KOQT Reporting Station
Clear Clear  
Wind Chill: 38°   Ceiling: Unl
Heat Index: 41°   Visibility: 10mi
Dew Point: 27°   Wind: 5mph
Humidity: 57%   Direction: 60°ENE
Pressure: 30.21"   Gusts: NA
Location:  36.04°N, 84.34°W
Report Text: KOQT 200053Z AUTO 06004KT 10SM CLR 05/M03 A3021 RMK AO2 SLP244 T00501028
Loading
Personal Weather Stations






























Interactive Weather Map New forecast layout! Learn more

10-Day Weather Forecast

Advertisements
Track Severe Weather on mobile